Time;durP1;ratioP1;P1;durP2;ratioP2;P2;SDS_P1;SDS_P2;PMS_P1;PMS_P2;Temp;Humidity;BMP_temperature;BMP_pressure;BME280_temperature;BME280_humidity;BME280_pressure;Samples;Min_cycle;Max_cycle;Signal;HPM_P1;HPM_P2
2024/02/24 00:02:14;;;;;;;9.68;5.03;;;;;;;10.36;100.00;100406.69;4992195;28;20088;-69
2024/02/24 00:04:39;;;;;;;9.40;4.63;;;;;;;10.42;100.00;100396.59;4992173;28;20133;-68
2024/02/24 00:07:05;;;;;;;7.55;4.80;;;;;;;10.48;100.00;100407.13;4992067;28;20034;-68
2024/02/24 00:09:30;;;;;;;8.18;5.45;;;;;;;10.50;100.00;100396.88;4991831;28;20049;-66
2024/02/24 00:11:55;;;;;;;9.30;5.13;;;;;;;10.51;100.00;100394.31;4992251;28;20498;-70
2024/02/24 00:14:21;;;;;;;7.88;4.60;;;;;;;10.57;100.00;100396.28;4991977;28;20030;-69
2024/02/24 00:16:47;;;;;;;8.38;4.97;;;;;;;10.57;100.00;100392.81;4993062;28;20414;-70
2024/02/24 00:19:12;;;;;;;10.05;5.05;;;;;;;10.45;100.00;100370.00;4990476;28;20057;-69
2024/02/24 00:21:38;;;;;;;7.85;5.05;;;;;;;10.49;100.00;100382.19;4991949;28;20038;-71
2024/02/24 00:24:03;;;;;;;8.50;5.13;;;;;;;10.49;100.00;100383.09;4991638;28;20045;-66
2024/02/24 00:26:29;;;;;;;7.15;4.65;;;;;;;10.49;100.00;100384.78;4991487;28;20030;-72
2024/02/24 00:28:55;;;;;;;7.45;4.65;;;;;;;10.43;100.00;100376.81;4991443;28;20063;-69
2024/02/24 00:31:23;;;;;;;7.72;4.85;;;;;;;10.48;100.00;100383.00;4992535;28;20079;-67
2024/02/24 00:33:49;;;;;;;8.23;5.00;;;;;;;10.34;100.00;100385.06;4978383;28;20092;-68
2024/02/24 00:36:14;;;;;;;6.53;4.60;;;;;;;10.28;100.00;100370.25;4991852;28;20465;-67
2024/02/24 00:38:40;;;;;;;10.10;5.18;;;;;;;10.36;100.00;100375.72;4977571;28;20085;-67
2024/02/24 00:41:05;;;;;;;6.80;4.57;;;;;;;10.37;100.00;100380.06;4991369;28;20030;-68
2024/02/24 00:43:31;;;;;;;7.78;4.93;;;;;;;10.30;100.00;100380.63;4991453;28;20034;-68
2024/02/24 00:45:56;;;;;;;6.60;4.95;;;;;;;10.26;100.00;100381.34;4992380;28;20043;-69
2024/02/24 00:48:22;;;;;;;7.80;4.65;;;;;;;10.15;100.00;100373.19;4991301;28;20081;-69
2024/02/24 00:50:47;;;;;;;7.05;4.70;;;;;;;10.17;100.00;100387.03;4991148;28;20034;-67
2024/02/24 00:53:13;;;;;;;6.90;4.68;;;;;;;9.94;100.00;100378.44;4991270;28;20058;-68
2024/02/24 00:55:38;;;;;;;8.02;4.47;;;;;;;9.51;100.00;100318.38;4991777;28;20041;-68
2024/02/24 00:58:04;;;;;;;7.25;4.57;;;;;;;9.83;100.00;100388.31;4962312;28;20050;-68
2024/02/24 01:00:29;;;;;;;8.65;4.30;;;;;;;9.69;100.00;100378.38;4990569;28;20030;-68
2024/02/24 01:02:56;;;;;;;9.55;4.88;;;;;;;9.57;100.00;100377.91;4991231;28;20047;-70
2024/02/24 01:05:22;;;;;;;15.27;5.50;;;;;;;9.00;100.00;100306.06;4982598;28;20026;-67
2024/02/24 01:07:47;;;;;;;9.30;5.28;;;;;;;9.17;100.00;100389.16;4990861;28;20041;-67
2024/02/24 01:10:13;;;;;;;9.88;5.68;;;;;;;9.03;100.00;100383.44;4991082;28;20033;-68
2024/02/24 01:12:39;;;;;;;8.88;5.30;;;;;;;8.92;100.00;100377.81;4991751;28;20497;-67
2024/02/24 01:15:05;;;;;;;8.57;5.18;;;;;;;8.86;100.00;100369.84;4990818;28;20070;-69
2024/02/24 01:17:31;;;;;;;11.25;5.82;;;;;;;8.80;100.00;100383.34;4990974;28;20054;-67
2024/02/24 01:19:57;;;;;;;9.27;5.43;;;;;;;7.97;100.00;100238.28;4990642;28;20034;-68
2024/02/24 01:22:23;;;;;;;7.22;4.85;;;;;;;8.52;100.00;100317.84;4991436;28;20023;-69
2024/02/24 01:24:49;;;;;;;8.50;4.95;;;;;;;8.90;100.00;100374.31;4991499;28;20118;-67
2024/02/24 01:27:14;;;;;;;9.70;4.85;;;;;;;8.84;100.00;100350.91;4991000;28;20058;-68
2024/02/24 01:29:40;;;;;;;8.95;5.05;;;;;;;8.99;100.00;100371.25;4991249;28;20470;-68
2024/02/24 01:32:05;;;;;;;10.48;5.03;;;;;;;8.98;100.00;100375.50;4990603;28;20031;-66
2024/02/24 01:34:31;;;;;;;11.68;5.10;;;;;;;8.88;100.00;100373.38;4990348;28;20072;-67
2024/02/24 01:36:56;;;;;;;7.00;4.65;;;;;;;8.65;100.00;100367.22;4990947;28;20029;-68
2024/02/24 01:39:22;;;;;;;8.07;4.45;;;;;;;8.50;100.00;100390.59;4991149;28;20035;-67
2024/02/24 01:42:09;;;;;;;8.27;5.55;;;;;;;8.35;100.00;100367.63;4990515;28;20030;-69
2024/02/24 01:44:34;;;;;;;11.52;5.38;;;;;;;7.86;100.00;100292.66;4948857;28;20043;-67
2024/02/24 01:47:00;;;;;;;10.23;5.32;;;;;;;8.32;100.00;100370.94;4966947;28;20042;-68
2024/02/24 01:49:25;;;;;;;10.00;5.60;;;;;;;8.31;100.00;100374.34;4957592;28;20047;-66
2024/02/24 01:51:51;;;;;;;8.88;5.72;;;;;;;7.43;100.00;100222.22;4952753;28;20027;-67
2024/02/24 01:54:17;;;;;;;7.97;5.68;;;;;;;7.72;100.00;100304.84;4954079;28;20051;-65
2024/02/24 01:56:45;;;;;;;8.68;6.03;;;;;;;7.88;100.00;100368.13;4962064;28;20035;-67
2024/02/24 01:59:10;;;;;;;10.95;7.18;;;;;;;7.74;100.00;100377.78;4950021;28;20047;-68
2024/02/24 02:01:37;;;;;;;12.20;7.97;;;;;;;7.55;100.00;100358.06;4950082;28;20046;-70
2024/02/24 02:04:03;;;;;;;13.05;7.78;;;;;;;7.50;100.00;100374.03;4948900;28;20051;-74
2024/02/24 02:06:31;;;;;;;13.55;7.35;;;;;;;7.50;100.00;100377.50;4953774;28;20226;-69
2024/02/24 02:08:57;;;;;;;10.73;7.25;;;;;;;7.48;100.00;100366.28;4951221;28;20050;-70
2024/02/24 02:11:22;;;;;;;11.68;7.97;;;;;;;7.24;100.00;100336.03;4956314;28;20410;-67
2024/02/24 02:13:48;;;;;;;11.82;7.22;;;;;;;7.24;100.00;100369.41;4952572;28;20043;-69
2024/02/24 02:16:14;;;;;;;11.38;7.47;;;;;;;7.09;100.00;100350.69;4983384;28;20395;-70
2024/02/24 02:18:39;;;;;;;12.18;7.88;;;;;;;6.54;100.00;100280.44;4989598;28;20415;-69
2024/02/24 02:21:07;;;;;;;10.98;7.88;;;;;;;6.60;100.00;100291.03;4989541;28;20537;-71
2024/02/24 02:23:32;;;;;;;11.88;7.47;;;;;;;6.62;100.00;100284.25;4989918;28;20038;-74
2024/02/24 02:25:58;;;;;;;11.70;7.57;;;;;;;6.99;100.00;100348.47;4987721;28;20027;-68
2024/02/24 02:28:23;;;;;;;14.55;8.48;;;;;;;6.26;100.00;100240.59;4990033;28;20442;-70
2024/02/24 02:30:49;;;;;;;11.50;7.57;;;;;;;6.96;100.00;100372.31;4988041;28;20038;-70
2024/02/24 02:33:15;;;;;;;12.70;7.72;;;;;;;6.76;100.00;100361.91;4989681;28;20026;-70
2024/02/24 02:35:40;;;;;;;10.77;7.30;;;;;;;6.73;100.00;100378.84;4987244;28;20604;-68
2024/02/24 02:38:09;;;;;;;12.07;7.18;;;;;;;6.62;100.00;100373.19;4989321;28;20041;-69
2024/02/24 02:40:34;;;;;;;14.18;8.73;;;;;;;6.35;100.00;100375.19;4989527;28;20030;-68
2024/02/24 02:43:00;;;;;;;13.63;8.00;;;;;;;6.20;100.00;100376.13;4989374;28;20113;-68
2024/02/24 02:45:25;;;;;;;13.10;8.77;;;;;;;5.98;100.00;100367.31;4990365;28;20018;-66
2024/02/24 02:47:51;;;;;;;13.57;8.88;;;;;;;5.95;100.00;100366.22;4989525;28;20084;-69
2024/02/24 02:50:16;;;;;;;13.45;8.10;;;;;;;5.69;100.00;100313.59;4986577;28;20026;-69
2024/02/24 02:52:42;;;;;;;17.23;9.43;;;;;;;6.11;100.00;100384.22;4989399;28;20038;-68
2024/02/24 02:55:08;;;;;;;11.93;7.75;;;;;;;6.02;100.00;100377.72;4990230;28;20379;-66
2024/02/24 02:57:33;;;;;;;13.35;8.07;;;;;;;5.81;100.00;100353.53;4989479;28;20391;-67
2024/02/24 02:59:59;;;;;;;15.02;7.88;;;;;;;5.97;100.00;100385.13;4987258;28;20117;-68
2024/02/24 03:02:25;;;;;;;14.07;8.98;;;;;;;5.91;100.00;100378.00;4989543;28;20022;-68
2024/02/24 03:04:50;;;;;;;12.20;8.52;;;;;;;5.76;100.00;100365.22;4979829;28;20038;-68
2024/02/24 03:07:15;;;;;;;14.30;8.70;;;;;;;5.76;100.00;100372.03;4989313;28;20109;-66
2024/02/24 03:09:46;;;;;;;13.32;8.40;;;;;;;5.75;100.00;100388.22;4989541;28;20030;-69
2024/02/24 03:12:12;;;;;;;15.50;7.72;;;;;;;5.50;100.00;100361.25;4989958;28;20022;-68
2024/02/24 03:14:38;;;;;;;12.25;8.40;;;;;;;5.53;100.00;100387.00;4989764;28;20485;-67
2024/02/24 03:17:03;;;;;;;13.05;8.35;;;;;;;5.27;100.00;100342.03;4989070;28;20113;-70
2024/02/24 03:19:29;;;;;;;15.35;9.85;;;;;;;5.49;100.00;100395.31;4989598;28;20398;-69
2024/02/24 03:21:54;;;;;;;13.35;8.93;;;;;;;5.33;100.00;100391.91;4990516;28;20069;-66
2024/02/24 03:24:21;;;;;;;13.50;8.23;;;;;;;5.36;100.00;100404.00;4993100;28;20125;-68
2024/02/24 03:26:46;;;;;;;14.95;9.55;;;;;;;5.36;100.00;100401.44;4993271;28;20541;-67
2024/02/24 03:29:12;;;;;;;13.40;8.05;;;;;;;5.39;100.00;100405.84;4993008;28;20018;-68
2024/02/24 03:31:37;;;;;;;13.20;8.52;;;;;;;5.41;100.00;100409.34;4992684;28;20037;-70
2024/02/24 03:34:03;;;;;;;14.10;9.25;;;;;;;5.14;100.00;100356.69;4992864;28;20022;-71
2024/02/24 03:36:29;;;;;;;12.65;8.48;;;;;;;4.99;100.00;100322.56;4962501;28;20498;-68
2024/02/24 03:38:54;;;;;;;15.20;8.38;;;;;;;4.99;100.00;100336.22;4985208;28;20022;-71
2024/02/24 03:41:20;;;;;;;13.75;8.60;;;;;;;5.50;100.00;100415.00;4992762;28;20058;-66
2024/02/24 03:43:45;;;;;;;14.90;9.23;;;;;;;5.43;100.00;100408.66;4992970;28;20081;-67
2024/02/24 03:46:11;;;;;;;17.08;8.38;;;;;;;4.94;100.00;100329.97;4993364;28;20050;-74
2024/02/24 03:48:36;;;;;;;12.23;8.43;;;;;;;5.30;100.00;100391.72;4992656;28;20038;-68
2024/02/24 03:51:02;;;;;;;15.43;9.07;;;;;;;5.44;100.00;100415.53;4961931;28;20469;-66
2024/02/24 03:53:30;;;;;;;12.20;7.90;;;;;;;5.32;100.00;100407.16;4992951;28;20022;-68
2024/02/24 03:55:56;;;;;;;13.75;8.50;;;;;;;5.41;100.00;100417.03;4992739;28;20042;-66
2024/02/24 03:58:22;;;;;;;14.70;8.52;;;;;;;5.29;100.00;100405.31;4992076;28;20536;-69
2024/02/24 04:00:50;;;;;;;15.25;8.38;;;;;;;5.02;100.00;100359.44;4992835;28;20045;-69
2024/02/24 04:03:15;;;;;;;13.00;7.93;;;;;;;5.25;100.00;100390.56;4992242;28;20113;-67
2024/02/24 04:05:41;;;;;;;12.85;8.30;;;;;;;4.94;100.00;100345.31;4983995;28;20117;-66
2024/02/24 04:08:06;;;;;;;12.43;8.00;;;;;;;5.36;100.00;100409.13;4992543;28;20482;-67
2024/02/24 04:10:32;;;;;;;13.82;8.43;;;;;;;5.31;100.00;100413.09;4992129;28;20034;-66
2024/02/24 04:12:57;;;;;;;15.70;8.73;;;;;;;5.20;100.00;100417.59;4992579;28;20038;-68
2024/02/24 04:15:23;;;;;;;13.25;8.63;;;;;;;5.21;100.00;100408.22;4991917;28;20410;-70
2024/02/24 04:17:49;;;;;;;14.02;8.32;;;;;;;5.14;100.00;100414.66;4992453;28;20058;-66
2024/02/24 04:20:15;;;;;;;13.27;8.73;;;;;;;5.08;100.00;100422.00;4990587;28;20117;-71
2024/02/24 04:22:41;;;;;;;14.52;8.98;;;;;;;4.92;100.00;100420.22;4992467;28;20130;-68
2024/02/24 04:25:07;;;;;;;15.73;9.02;;;;;;;4.90;100.00;100420.13;4992318;28;20023;-73
2024/02/24 04:27:33;;;;;;;13.40;8.43;;;;;;;4.79;100.00;100422.03;4992149;28;20501;-67
2024/02/24 04:29:58;;;;;;;14.18;8.77;;;;;;;4.72;100.00;100409.66;4993187;28;20034;-67
2024/02/24 04:32:24;;;;;;;12.02;7.97;;;;;;;4.45;100.00;100339.88;4991861;28;20549;-68
2024/02/24 04:34:49;;;;;;;13.52;8.25;;;;;;;4.89;100.00;100427.72;4988248;28;20038;-67
2024/02/24 04:37:15;;;;;;;13.65;8.45;;;;;;;4.74;100.00;100433.69;4991089;28;20045;-69
2024/02/24 04:39:40;;;;;;;15.32;9.13;;;;;;;4.72;100.00;100439.50;4991485;28;20422;-68
2024/02/24 04:42:07;;;;;;;16.17;8.88;;;;;;;4.81;100.00;100434.91;4991992;28;20045;-69
2024/02/24 04:44:32;;;;;;;14.50;8.20;;;;;;;4.64;100.00;100408.34;4991841;28;20124;-68
2024/02/24 04:46:58;;;;;;;16.23;8.55;;;;;;;4.77;100.00;100438.09;4993098;28;20161;-68
2024/02/24 04:49:23;;;;;;;13.32;8.10;;;;;;;4.58;100.00;100416.53;4992377;28;20125;-68
2024/02/24 04:51:49;;;;;;;14.60;8.57;;;;;;;4.63;100.00;100439.81;4990376;28;20045;-68
2024/02/24 04:54:16;;;;;;;14.63;8.63;;;;;;;4.59;100.00;100437.88;4991843;28;20093;-67
2024/02/24 04:56:41;;;;;;;15.32;9.05;;;;;;;4.27;100.00;100417.22;4992781;28;20172;-68
2024/02/24 04:59:07;;;;;;;12.07;7.70;;;;;;;4.11;100.00;100391.53;4991647;28;20121;-68
2024/02/24 05:01:32;;;;;;;18.63;9.52;;;;;;;4.27;100.00;100455.56;4991403;28;20030;-66
2024/02/24 05:03:58;;;;;;;13.30;8.35;;;;;;;4.03;100.00;100389.38;4992002;28;20085;-68
2024/02/24 05:06:23;;;;;;;13.20;8.10;;;;;;;4.34;100.00;100452.59;4991989;28;20030;-68
2024/02/24 05:08:49;;;;;;;12.75;8.18;;;;;;;4.44;100.00;100455.72;4992321;28;20474;-69
2024/02/24 05:11:14;;;;;;;12.82;7.82;;;;;;;4.35;100.00;100453.50;4989288;28;20034;-67
2024/02/24 05:13:40;;;;;;;13.85;7.93;;;;;;;4.40;100.00;100469.09;4991109;28;20034;-69
2024/02/24 05:16:06;;;;;;;11.27;7.85;;;;;;;3.97;100.00;100398.34;4991437;28;20030;-70
2024/02/24 05:18:31;;;;;;;13.60;8.00;;;;;;;3.91;100.00;100396.28;4992212;28;20488;-67
2024/02/24 05:20:59;;;;;;;13.98;9.05;;;;;;;4.28;100.00;100484.56;4991447;28;20036;-68
2024/02/24 05:23:25;;;;;;;14.80;7.90;;;;;;;3.88;100.00;100411.41;4991803;28;20034;-67
2024/02/24 05:25:50;;;;;;;13.05;7.93;;;;;;;4.31;100.00;100480.53;4991336;28;20038;-68
2024/02/24 05:28:15;;;;;;;13.20;8.13;;;;;;;4.54;100.00;100489.59;4991866;28;20034;-72
2024/02/24 05:30:41;;;;;;;17.15;8.38;;;;;;;4.60;100.00;100475.41;4992054;28;20117;-69
2024/02/24 05:33:08;;;;;;;11.90;7.43;;;;;;;4.56;100.00;100481.16;4991401;28;20073;-68
2024/02/24 05:35:33;;;;;;;13.93;8.45;;;;;;;4.52;100.00;100510.75;4991416;28;20054;-68
2024/02/24 05:37:59;;;;;;;116.38;49.55;;;;;;;4.52;100.00;100496.31;4991661;28;20466;-68
2024/02/24 05:40:24;;;;;;;61.13;34.40;;;;;;;4.55;100.00;100500.72;4991483;28;20085;-67
2024/02/24 05:42:50;;;;;;;26.60;15.63;;;;;;;4.79;100.00;100510.69;4979217;28;20489;-68
2024/02/24 05:45:16;;;;;;;23.20;12.50;;;;;;;4.83;100.00;100505.81;4990246;28;20041;-68
2024/02/24 05:47:42;;;;;;;17.00;9.88;;;;;;;4.90;100.00;100499.44;4991346;28;20119;-70
2024/02/24 05:50:08;;;;;;;15.70;9.18;;;;;;;4.89;100.00;100507.88;4991058;28;20038;-69
2024/02/24 05:52:33;;;;;;;13.15;9.05;;;;;;;4.84;100.00;100514.41;4990894;28;20490;-67
2024/02/24 05:54:59;;;;;;;13.18;8.20;;;;;;;4.53;100.00;100471.63;4991482;28;20113;-69
2024/02/24 05:57:25;;;;;;;15.20;8.98;;;;;;;4.79;100.00;100526.91;4990907;28;20125;-69
2024/02/24 05:59:50;;;;;;;15.57;10.15;;;;;;;4.25;100.00;100428.13;4990710;28;20026;-72
2024/02/24 06:02:16;;;;;;;15.57;9.68;;;;;;;4.90;100.00;100530.13;4988204;28;20073;-68
2024/02/24 06:04:42;;;;;;;15.80;9.80;;;;;;;4.90;100.00;100537.81;4994004;28;20407;-67
2024/02/24 06:07:08;;;;;;;17.60;10.30;;;;;;;5.01;100.00;100538.47;4948018;28;20046;-68
2024/02/24 06:09:33;;;;;;;15.93;9.40;;;;;;;5.13;100.00;100544.28;4990700;28;20030;-68
2024/02/24 06:11:59;;;;;;;15.60;9.82;;;;;;;5.18;100.00;100542.91;4990876;28;20487;-69
2024/02/24 06:14:24;;;;;;;13.18;7.40;;;;;;;5.32;100.00;100551.41;4990239;28;20039;-72
2024/02/24 06:16:50;;;;;;;12.13;8.13;;;;;;;5.39;100.00;100544.09;4961791;28;20502;-66
2024/02/24 06:19:16;;;;;;;14.27;8.35;;;;;;;5.46;100.00;100546.22;4990824;28;20080;-69
2024/02/24 06:21:42;;;;;;;13.75;8.73;;;;;;;5.48;100.00;100521.56;4990569;28;20117;-67
2024/02/24 06:24:07;;;;;;;11.82;7.88;;;;;;;5.76;100.00;100543.69;4990534;28;20486;-68
2024/02/24 06:26:33;;;;;;;11.75;7.75;;;;;;;5.97;100.00;100550.00;4991078;28;20402;-69
2024/02/24 06:28:59;;;;;;;16.30;7.97;;;;;;;6.16;100.00;100556.22;4990508;28;20471;-70
2024/02/24 06:31:25;;;;;;;13.55;7.90;;;;;;;6.28;100.00;100562.03;4990616;28;20038;-67
2024/02/24 06:33:50;;;;;;;14.30;7.80;;;;;;;6.44;100.00;100558.63;4991010;28;20160;-70
2024/02/24 06:36:16;;;;;;;10.55;7.28;;;;;;;6.53;100.00;100548.00;4990288;28;20030;-69
2024/02/24 06:38:41;;;;;;;11.95;8.50;;;;;;;6.80;100.00;100547.69;4990132;28;20069;-68
2024/02/24 06:41:07;;;;;;;15.00;8.75;;;;;;;7.00;100.00;100555.59;4990498;28;20029;-71
2024/02/24 06:43:32;;;;;;;13.75;7.43;;;;;;;7.10;100.00;100552.69;4990268;28;20449;-69
2024/02/24 06:45:58;;;;;;;15.35;8.13;;;;;;;7.26;100.00;100549.22;4990239;28;20023;-68
2024/02/24 06:48:24;;;;;;;11.68;7.88;;;;;;;7.45;100.00;100533.06;4990618;28;20054;-69
2024/02/24 06:50:49;;;;;;;13.20;7.63;;;;;;;7.80;100.00;100559.66;4990102;28;20054;-68
2024/02/24 06:53:15;;;;;;;13.40;8.20;;;;;;;7.94;100.00;100561.22;4989946;28;20457;-67
2024/02/24 06:55:41;;;;;;;14.57;8.65;;;;;;;7.79;100.00;100506.50;4989934;28;20038;-67
2024/02/24 06:58:07;;;;;;;15.23;8.55;;;;;;;8.20;100.00;100561.59;4993796;28;20111;-71
2024/02/24 07:00:33;;;;;;;10.60;7.07;;;;;;;8.42;100.00;100565.19;4994186;28;20030;-68
2024/02/24 07:02:58;;;;;;;12.05;7.28;;;;;;;8.62;100.00;100554.97;4993926;28;20537;-68
2024/02/24 07:05:25;;;;;;;11.73;7.60;;;;;;;8.76;100.00;100559.09;4993738;28;20033;-68
2024/02/24 07:07:51;;;;;;;11.13;6.80;;;;;;;8.90;100.00;100562.28;4989594;28;20513;-68
2024/02/24 07:10:17;;;;;;;12.93;6.82;;;;;;;8.55;100.00;100490.38;4994001;28;20031;-69
2024/02/24 07:12:43;;;;;;;12.75;6.82;;;;;;;9.09;100.00;100558.81;4994099;28;20038;-68
2024/02/24 07:15:28;;;;;;;11.15;6.82;;;;;;;9.30;100.00;100560.59;4993973;28;20077;-66
2024/02/24 07:17:55;;;;;;;11.02;7.72;;;;;;;9.45;100.00;100568.09;4956215;28;20070;-67
2024/02/24 07:20:21;;;;;;;17.42;13.85;;;;;;;9.62;100.00;100576.53;4960323;28;20505;-68
2024/02/24 07:22:48;;;;;;;10.18;6.60;;;;;;;9.79;100.00;100570.38;4961134;28;20050;-69
2024/02/24 07:25:15;;;;;;;16.55;7.75;;;;;;;9.41;100.00;100469.16;4961572;28;20134;-67
2024/02/24 07:27:41;;;;;;;12.10;7.18;;;;;;;10.17;100.00;100572.78;4961445;28;20034;-68
2024/02/24 07:30:07;;;;;;;11.15;7.18;;;;;;;10.39;100.00;100560.75;4960367;28;20196;-69
2024/02/24 07:32:33;;;;;;;10.75;6.70;;;;;;;10.63;100.00;100556.56;4961872;28;20051;-68
2024/02/24 07:34:59;;;;;;;13.57;7.82;;;;;;;10.82;100.00;100565.88;4961888;28;20515;-67
2024/02/24 07:37:25;;;;;;;11.32;6.78;;;;;;;10.95;100.00;100562.06;4961847;28;20054;-67
2024/02/24 07:39:50;;;;;;;10.52;6.53;;;;;;;10.72;100.00;100491.47;4965731;28;20035;-68
2024/02/24 07:42:16;;;;;;;15.10;7.85;;;;;;;10.99;100.00;100521.69;4961786;28;20134;-68
2024/02/24 07:44:41;;;;;;;14.00;7.25;;;;;;;11.01;100.00;100507.13;4936093;28;20047;-68
2024/02/24 07:47:08;;;;;;;11.02;6.75;;;;;;;11.48;100.00;100566.50;4960832;28;20088;-67
2024/02/24 07:49:33;;;;;;;9.25;7.05;;;;;;;11.55;100.00;100565.88;4985695;28;20053;-67
2024/02/24 07:51:59;;;;;;;12.00;6.72;;;;;;;11.65;100.00;100567.97;4992948;28;20035;-69
2024/02/24 07:54:24;;;;;;;8.13;5.68;;;;;;;11.80;100.00;100577.94;4992834;28;20045;-71
2024/02/24 07:56:50;;;;;;;11.68;6.70;;;;;;;11.94;100.00;100562.88;4993162;28;20038;-67
2024/02/24 07:59:15;;;;;;;10.75;6.68;;;;;;;11.98;100.00;100545.78;4992822;28;20031;-68
2024/02/24 08:01:41;;;;;;;10.00;6.32;;;;;;;12.20;100.00;100567.16;4992805;28;20734;-69
2024/02/24 08:04:06;;;;;;;12.05;6.38;;;;;;;12.36;100.00;100565.94;4993005;28;20033;-68
2024/02/24 08:06:32;;;;;;;11.85;5.93;;;;;;;12.52;100.00;100569.88;4993040;28;20027;-68
2024/02/24 08:08:57;;;;;;;8.25;5.40;;;;;;;12.78;100.00;100568.97;4992100;28;20061;-69
2024/02/24 08:11:24;;;;;;;9.45;4.50;;;;;;;13.00;100.00;100568.72;4993788;28;20041;-68
2024/02/24 08:13:49;;;;;;;8.00;4.82;;;;;;;13.18;100.00;100571.78;4992873;28;20045;-67
2024/02/24 08:16:20;;;;;;;8.00;4.93;;;;;;;13.32;100.00;100577.38;4992765;28;20038;-67
2024/02/24 08:18:47;;;;;;;7.43;4.10;;;;;;;13.50;100.00;100578.75;4987065;28;20188;-68
2024/02/24 08:21:12;;;;;;;7.20;4.40;;;;;;;13.55;100.00;100559.00;4992327;28;20395;-67
2024/02/24 08:23:38;;;;;;;7.10;4.13;;;;;;;13.86;100.00;100572.75;4992272;28;20037;-67
2024/02/24 08:26:04;;;;;;;8.23;4.00;;;;;;;14.05;100.00;100561.09;4992271;28;20101;-66
2024/02/24 08:28:29;;;;;;;7.28;4.22;;;;;;;14.26;100.00;100565.06;4992227;28;20113;-68
2024/02/24 08:30:55;;;;;;;8.63;4.22;;;;;;;14.03;100.00;100497.88;4992514;28;20474;-67
2024/02/24 08:33:22;;;;;;;6.68;4.43;;;;;;;14.57;100.00;100562.31;4992702;28;20034;-67
2024/02/24 08:35:51;;;;;;;7.43;4.57;;;;;;;14.67;100.00;100575.53;4992081;28;20096;-69
2024/02/24 08:38:17;;;;;;;9.75;4.90;;;;;;;14.75;100.00;100566.19;4991981;28;20104;-67
2024/02/24 08:40:43;;;;;;;7.78;4.80;;;;;;;14.87;99.15;100560.38;4992035;28;20038;-67
2024/02/24 08:43:08;;;;;;;7.60;4.35;;;;;;;14.80;100.00;100553.28;4965562;28;20048;-66
2024/02/24 08:45:34;;;;;;;9.57;5.22;;;;;;;14.98;100.00;100566.66;4991977;28;20080;-67
2024/02/24 08:47:59;;;;;;;8.25;4.95;;;;;;;15.17;97.20;100562.69;4992144;28;20034;-67
2024/02/24 08:50:25;;;;;;;10.80;5.40;;;;;;;14.97;95.77;100510.31;4963508;28;20546;-68
2024/02/24 08:52:51;;;;;;;8.88;5.20;;;;;;;15.39;97.01;100575.25;4991802;28;20030;-67
2024/02/24 08:55:17;;;;;;;6.68;4.30;;;;;;;15.44;97.14;100571.00;4992231;28;20031;-69
2024/02/24 08:57:42;;;;;;;7.00;4.50;;;;;;;15.63;95.96;100572.25;4991818;28;20022;-69
2024/02/24 09:00:08;;;;;;;6.97;4.25;;;;;;;15.81;93.09;100574.28;4992230;28;20134;-66
2024/02/24 09:02:36;;;;;;;8.20;4.30;;;;;;;15.90;91.53;100571.88;4991577;28;20065;-67
2024/02/24 09:05:01;;;;;;;9.10;4.35;;;;;;;15.99;91.58;100574.63;4991776;28;20034;-67
2024/02/24 09:07:27;;;;;;;9.25;4.20;;;;;;;15.82;89.39;100529.19;4991574;28;20183;-68
2024/02/24 09:09:52;;;;;;;10.20;4.32;;;;;;;16.18;89.28;100583.59;4981379;28;20545;-69
2024/02/24 09:12:18;;;;;;;6.80;4.07;;;;;;;16.25;89.44;100583.69;4991389;28;20026;-67
2024/02/24 09:14:43;;;;;;;6.45;3.83;;;;;;;16.00;88.78;100513.88;4991890;28;20027;-69
2024/02/24 09:17:09;;;;;;;8.23;4.32;;;;;;;16.40;88.91;100568.31;4963461;28;20490;-68
2024/02/24 09:19:34;;;;;;;5.97;3.97;;;;;;;16.49;90.67;100567.56;4971592;28;20446;-68
2024/02/24 09:22:01;;;;;;;7.72;3.60;;;;;;;16.27;90.62;100514.25;4971677;28;20087;-68
2024/02/24 09:24:28;;;;;;;4.35;2.50;;;;;;;16.72;84.51;100531.34;4970898;28;20042;-68
2024/02/24 09:26:54;;;;;;;8.85;4.05;;;;;;;16.69;86.00;100497.44;4971792;28;20122;-67
2024/02/24 09:29:21;;;;;;;8.90;4.55;;;;;;;17.32;82.25;100561.66;4971900;28;20134;-68
2024/02/24 09:31:47;;;;;;;5.75;3.10;;;;;;;17.39;79.42;100559.13;4970266;28;20089;-68
2024/02/24 09:34:14;;;;;;;3.92;2.50;;;;;;;17.40;78.54;100563.47;4971350;28;20031;-68
2024/02/24 09:36:40;;;;;;;5.25;3.63;;;;;;;17.58;81.45;100569.75;4971584;28;20026;-68
2024/02/24 09:39:06;;;;;;;7.72;4.35;;;;;;;17.22;82.23;100498.94;4972032;28;20498;-67
2024/02/24 09:41:31;;;;;;;4.93;3.30;;;;;;;17.67;82.26;100567.25;4971836;28;20097;-68
2024/02/24 09:43:57;;;;;;;5.68;3.42;;;;;;;17.65;77.70;100560.25;4971393;28;20479;-66
2024/02/24 09:46:22;;;;;;;5.13;3.25;;;;;;;17.79;74.99;100553.41;4971322;28;20034;-69
2024/02/24 09:48:49;;;;;;;4.70;2.55;;;;;;;17.70;73.27;100493.28;4971374;28;20031;-68
2024/02/24 09:51:15;;;;;;;5.63;2.90;;;;;;;18.05;67.75;100518.81;4971939;28;20042;-68
2024/02/24 09:53:40;;;;;;;4.55;2.38;;;;;;;18.35;66.52;100518.13;4971350;28;20019;-68
2024/02/24 09:56:06;;;;;;;3.72;2.33;;;;;;;18.56;67.22;100519.97;4971554;28;20053;-67
2024/02/24 09:58:33;;;;;;;5.03;2.10;;;;;;;18.76;66.01;100511.34;4971026;28;20061;-68
2024/02/24 10:00:58;;;;;;;4.38;2.40;;;;;;;18.99;62.59;100508.88;4971141;28;20038;-68
2024/02/24 10:03:26;;;;;;;3.53;2.10;;;;;;;19.10;60.69;100506.25;4970481;28;20030;-69
2024/02/24 10:05:51;;;;;;;5.32;2.38;;;;;;;19.15;61.66;100487.94;4971109;28;20046;-67
2024/02/24 10:08:17;;;;;;;3.67;2.30;;;;;;;19.38;61.74;100490.63;4971130;28;20506;-68
2024/02/24 10:10:43;;;;;;;5.05;2.35;;;;;;;19.58;59.85;100492.34;4970837;28;20062;-68
2024/02/24 10:13:09;;;;;;;4.20;2.53;;;;;;;19.70;59.52;100487.13;4971706;28;20122;-68
2024/02/24 10:15:35;;;;;;;3.30;2.40;;;;;;;19.35;58.09;100423.44;4971044;28;20399;-68
2024/02/24 10:18:01;;;;;;;4.50;2.25;;;;;;;19.78;58.91;100485.38;4978236;28;20169;-68
2024/02/24 10:20:27;;;;;;;3.78;2.40;;;;;;;19.35;58.76;100412.06;4961935;28;20501;-68
2024/02/24 10:22:53;;;;;;;5.53;2.20;;;;;;;19.87;57.10;100477.53;4990155;28;20105;-70
2024/02/24 10:25:19;;;;;;;6.25;2.78;;;;;;;19.88;57.80;100479.28;4990334;28;20113;-70
2024/02/24 10:27:46;;;;;;;4.03;2.20;;;;;;;19.65;58.26;100475.78;4990513;28;20027;-67
2024/02/24 10:30:12;;;;;;;5.82;2.63;;;;;;;19.46;59.27;100473.16;4990104;28;20124;-68
2024/02/24 10:32:39;;;;;;;6.60;2.70;;;;;;;19.47;59.25;100464.44;4990152;28;20030;-68
2024/02/24 10:35:05;;;;;;;4.28;2.10;;;;;;;19.55;57.74;100452.22;4990610;28;20410;-74
2024/02/24 10:37:34;;;;;;;4.00;2.38;;;;;;;19.24;56.71;100341.41;4990321;28;20026;-68
2024/02/24 10:40:02;;;;;;;3.72;2.20;;;;;;;20.06;54.94;100438.19;4990833;28;20034;-68
2024/02/24 10:42:28;;;;;;;3.95;2.00;;;;;;;20.29;55.08;100446.00;4990094;28;20034;-69
2024/02/24 10:44:55;;;;;;;3.17;1.90;;;;;;;20.18;55.38;100390.97;4989814;28;20038;-68
2024/02/24 10:47:21;;;;;;;4.68;2.40;;;;;;;20.50;55.28;100445.03;4990188;28;20039;-68
2024/02/24 10:49:46;;;;;;;4.60;1.90;;;;;;;20.52;52.61;100429.28;4990600;28;20037;-69
2024/02/24 10:52:14;;;;;;;4.20;1.98;;;;;;;20.40;50.26;100379.50;4990058;28;20109;-68
2024/02/24 10:54:42;;;;;;;5.70;2.30;;;;;;;20.95;50.13;100438.72;4989872;28;20044;-73
2024/02/24 10:57:08;;;;;;;24.25;11.75;;;;;;;20.56;50.34;100373.34;4989891;28;20030;-69
2024/02/24 10:59:33;;;;;;;2.85;1.90;;;;;;;20.99;49.02;100428.16;4957656;28;20043;-69
2024/02/24 11:02:00;;;;;;;4.20;2.30;;;;;;;20.98;49.24;100431.66;4956817;28;20078;-68
2024/02/24 11:04:27;;;;;;;3.97;2.10;;;;;;;20.99;49.89;100401.94;4956527;28;20055;-68
2024/02/24 11:06:54;;;;;;;41.63;21.75;;;;;;;20.82;49.94;100407.31;4958255;28;20039;-69
2024/02/24 11:09:34;;;;;;;18.95;10.18;;;;;;;21.11;49.42;100423.72;4958407;28;20047;-68
2024/02/24 11:12:13;;;;;;;6.85;2.47;;;;;;;21.33;49.36;100421.81;4958796;28;20074;-70
2024/02/24 11:14:46;;;;;;;3.60;2.13;;;;;;;21.37;48.39;100414.78;4958610;28;20044;-68